sensor_id;sensor_type;location;lat;lon;timestamp;pressure;altitude;pressure_sealevel;temperature;humidity
54592;BME280;40488;48.558;18.150;2023-05-08T00:00:29;100104.19;;;8.76;70.85
54592;BME280;40488;48.558;18.150;2023-05-08T00:02:58;100108.53;;;8.82;70.68
54592;BME280;40488;48.558;18.150;2023-05-08T00:05:27;100102.56;;;8.81;70.85
54592;BME280;40488;48.558;18.150;2023-05-08T00:07:58;100107.72;;;8.84;70.30
54592;BME280;40488;48.558;18.150;2023-05-08T00:10:29;100112.00;;;8.88;70.57
54592;BME280;40488;48.558;18.150;2023-05-08T00:12:58;100114.47;;;8.82;70.07
54592;BME280;40488;48.558;18.150;2023-05-08T00:15:27;100112.00;;;8.87;70.54
54592;BME280;40488;48.558;18.150;2023-05-08T00:17:56;100114.53;;;8.85;70.34
54592;BME280;40488;48.558;18.150;2023-05-08T00:20:25;100116.16;;;8.82;70.76
54592;BME280;40488;48.558;18.150;2023-05-08T00:22:54;100124.53;;;8.73;70.10
54592;BME280;40488;48.558;18.150;2023-05-08T00:25:25;100122.81;;;8.70;70.42
54592;BME280;40488;48.558;18.150;2023-05-08T00:27:55;100126.97;;;8.65;71.39
54592;BME280;40488;48.558;18.150;2023-05-08T00:30:23;100122.88;;;8.75;71.10
54592;BME280;40488;48.558;18.150;2023-05-08T00:32:52;100122.88;;;8.75;70.92
54592;BME280;40488;48.558;18.150;2023-05-08T00:35:21;100122.00;;;8.76;70.95
54592;BME280;40488;48.558;18.150;2023-05-08T00:37:50;100114.22;;;8.64;70.64
54592;BME280;40488;48.558;18.150;2023-05-08T00:40:19;100121.06;;;8.68;70.18
54592;BME280;40488;48.558;18.150;2023-05-08T00:42:50;100127.84;;;8.69;71.62
54592;BME280;40488;48.558;18.150;2023-05-08T00:45:19;100126.28;;;8.78;70.67
54592;BME280;40488;48.558;18.150;2023-05-08T00:47:49;100125.47;;;8.81;70.95
54592;BME280;40488;48.558;18.150;2023-05-08T00:50:18;100126.41;;;8.86;70.45
54592;BME280;40488;48.558;18.150;2023-05-08T00:52:49;100128.94;;;8.86;70.72
54592;BME280;40488;48.558;18.150;2023-05-08T00:55:18;100131.38;;;8.77;70.31
54592;BME280;40488;48.558;18.150;2023-05-08T00:57:49;100136.28;;;8.65;71.09
54592;BME280;40488;48.558;18.150;2023-05-08T01:00:19;100132.88;;;8.64;70.73
54592;BME280;40488;48.558;18.150;2023-05-08T01:02:49;100129.47;;;8.64;71.74
54592;BME280;40488;48.558;18.150;2023-05-08T01:05:19;100131.25;;;8.68;71.40
54592;BME280;40488;48.558;18.150;2023-05-08T01:07:47;100127.03;;;8.68;70.64
54592;BME280;40488;48.558;18.150;2023-05-08T01:10:16;100134.53;;;8.61;70.98
54592;BME280;40488;48.558;18.150;2023-05-08T01:12:57;100141.31;;;8.59;70.40
54592;BME280;40488;48.558;18.150;2023-05-08T01:15:43;100124.25;;;8.53;71.27
54592;BME280;40488;48.558;18.150;2023-05-08T01:18:18;100131.03;;;8.53;71.59
54592;BME280;40488;48.558;18.150;2023-05-08T01:20:54;100129.41;;;8.56;71.64
54592;BME280;40488;48.558;18.150;2023-05-08T01:23:43;100132.94;;;8.66;71.52
54592;BME280;40488;48.558;18.150;2023-05-08T01:32:18;100143.41;;;8.87;70.79
54592;BME280;40488;48.558;18.150;2023-05-08T01:34:56;100146.94;;;8.98;70.82
54592;BME280;40488;48.558;18.150;2023-05-08T01:37:31;100141.06;;;9.04;70.96
54592;BME280;40488;48.558;18.150;2023-05-08T01:40:10;100143.63;;;9.04;70.66
54592;BME280;40488;48.558;18.150;2023-05-08T01:42:47;100155.44;;;9.00;70.61
54592;BME280;40488;48.558;18.150;2023-05-08T01:45:21;100154.41;;;8.86;69.50
54592;BME280;40488;48.558;18.150;2023-05-08T01:47:59;100150.88;;;8.75;70.41
54592;BME280;40488;48.558;18.150;2023-05-08T01:50:34;100156.72;;;8.71;70.80
54592;BME280;40488;48.558;18.150;2023-05-08T01:53:22;100163.53;;;8.73;71.17
54592;BME280;40488;48.558;18.150;2023-05-08T01:55:54;100156.69;;;8.68;71.08
54592;BME280;40488;48.558;18.150;2023-05-08T01:58:25;100156.69;;;8.68;72.04
54592;BME280;40488;48.558;18.150;2023-05-08T02:00:55;100148.19;;;8.66;71.03
54592;BME280;40488;48.558;18.150;2023-05-08T02:03:29;100155.03;;;8.70;71.74
54592;BME280;40488;48.558;18.150;2023-05-08T02:06:00;100154.97;;;8.67;71.49
54592;BME280;40488;48.558;18.150;2023-05-08T02:08:31;100151.69;;;8.74;72.31
54592;BME280;40488;48.558;18.150;2023-05-08T02:11:04;100155.91;;;8.72;72.05
54592;BME280;40488;48.558;18.150;2023-05-08T02:13:35;100156.72;;;8.71;72.65
54592;BME280;40488;48.558;18.150;2023-05-08T02:16:07;100156.78;;;8.74;71.86
54592;BME280;40488;48.558;18.150;2023-05-08T02:18:40;100162.72;;;8.76;72.05
54592;BME280;40488;48.558;18.150;2023-05-08T02:21:11;100161.09;;;8.80;72.38
54592;BME280;40488;48.558;18.150;2023-05-08T02:23:42;100161.91;;;8.77;72.20
54592;BME280;40488;48.558;18.150;2023-05-08T02:26:14;100160.25;;;8.79;71.82
54592;BME280;40488;48.558;18.150;2023-05-08T02:28:44;100155.31;;;8.91;72.63
54592;BME280;40488;48.558;18.150;2023-05-08T02:31:14;100156.22;;;8.95;71.46
54592;BME280;40488;48.558;18.150;2023-05-08T02:33:47;100157.06;;;8.95;72.23
54592;BME280;40488;48.558;18.150;2023-05-08T02:36:18;100164.75;;;8.97;71.71
54592;BME280;40488;48.558;18.150;2023-05-08T02:38:50;100158.78;;;8.96;71.79
54592;BME280;40488;48.558;18.150;2023-05-08T02:41:26;100164.78;;;9.00;71.86
54592;BME280;40488;48.558;18.150;2023-05-08T02:43:57;100168.16;;;8.99;72.11
54592;BME280;40488;48.558;18.150;2023-05-08T02:46:35;100173.31;;;9.05;71.56
54592;BME280;40488;48.558;18.150;2023-05-08T02:49:16;100173.41;;;9.09;71.32
54592;BME280;40488;48.558;18.150;2023-05-08T02:51:54;100169.94;;;9.07;70.95
54592;BME280;40488;48.558;18.150;2023-05-08T02:54:35;100179.31;;;9.10;71.54
54592;BME280;40488;48.558;18.150;2023-05-08T02:57:12;100178.38;;;9.02;71.75
54592;BME280;40488;48.558;18.150;2023-05-08T02:59:44;100178.38;;;9.02;71.66
54592;BME280;40488;48.558;18.150;2023-05-08T03:02:15;100172.44;;;9.01;71.05
54592;BME280;40488;48.558;18.150;2023-05-08T03:04:49;100184.41;;;9.07;71.34
54592;BME280;40488;48.558;18.150;2023-05-08T03:07:24;100175.91;;;9.08;71.26
54592;BME280;40488;48.558;18.150;2023-05-08T03:09:57;100173.31;;;9.03;71.32
54592;BME280;40488;48.558;18.150;2023-05-08T03:12:31;100177.47;;;8.98;70.89
54592;BME280;40488;48.558;18.150;2023-05-08T03:15:05;100170.53;;;8.88;71.05
54592;BME280;40488;48.558;18.150;2023-05-08T03:17:37;100170.53;;;8.88;71.29
54592;BME280;40488;48.558;18.150;2023-05-08T03:20:11;100177.34;;;8.89;71.43
54592;BME280;40488;48.558;18.150;2023-05-08T03:22:43;100178.22;;;8.91;71.88
54592;BME280;40488;48.558;18.150;2023-05-08T03:25:16;100176.53;;;8.92;71.49
54592;BME280;40488;48.558;18.150;2023-05-08T03:27:47;100178.22;;;8.91;72.44
54592;BME280;40488;48.558;18.150;2023-05-08T03:30:17;100179.03;;;8.90;71.41
54592;BME280;40488;48.558;18.150;2023-05-08T03:32:57;100178.22;;;8.90;72.14
54592;BME280;40488;48.558;18.150;2023-05-08T03:35:29;100179.03;;;8.87;71.82
54592;BME280;40488;48.558;18.150;2023-05-08T03:37:59;100185.03;;;8.92;71.96
54592;BME280;40488;48.558;18.150;2023-05-08T03:40:29;100182.50;;;8.92;71.56
54592;BME280;40488;48.558;18.150;2023-05-08T03:42:59;100182.44;;;8.89;71.86
54592;BME280;40488;48.558;18.150;2023-05-08T03:45:29;100181.53;;;8.86;71.59
54592;BME280;40488;48.558;18.150;2023-05-08T03:47:59;100179.03;;;8.90;71.46
54592;BME280;40488;48.558;18.150;2023-05-08T03:50:31;100185.16;;;9.00;71.72
54592;BME280;40488;48.558;18.150;2023-05-08T03:53:04;100185.09;;;8.97;71.31
54592;BME280;40488;48.558;18.150;2023-05-08T03:55:33;100185.03;;;8.92;71.23
54592;BME280;40488;48.558;18.150;2023-05-08T03:58:12;100184.13;;;8.90;70.88
54592;BME280;40488;48.558;18.150;2023-05-08T04:00:56;100185.81;;;8.88;71.39
54592;BME280;40488;48.558;18.150;2023-05-08T04:03:34;100185.00;;;8.91;71.56
54592;BME280;40488;48.558;18.150;2023-05-08T04:06:14;100188.56;;;9.02;71.23
54592;BME280;40488;48.558;18.150;2023-05-08T04:08:54;100195.34;;;9.03;71.06
54592;BME280;40488;48.558;18.150;2023-05-08T04:11:31;100202.34;;;9.16;71.06
54592;BME280;40488;48.558;18.150;2023-05-08T04:14:04;100203.16;;;9.13;70.86
54592;BME280;40488;48.558;18.150;2023-05-08T04:16:38;100201.53;;;9.18;71.72
54592;BME280;40488;48.558;18.150;2023-05-08T04:19:12;100204.81;;;9.11;71.49
54592;BME280;40488;48.558;18.150;2023-05-08T04:21:46;100208.13;;;9.04;71.13
54592;BME280;40488;48.558;18.150;2023-05-08T04:24:16;100214.03;;;9.05;71.61
54592;BME280;40488;48.558;18.150;2023-05-08T04:26:47;100207.31;;;9.08;71.14
54592;BME280;40488;48.558;18.150;2023-05-08T04:29:17;100216.75;;;9.15;71.23
54592;BME280;40488;48.558;18.150;2023-05-08T04:31:47;100220.28;;;9.23;70.99
54592;BME280;40488;48.558;18.150;2023-05-08T04:34:17;100221.19;;;9.28;71.14
54592;BME280;40488;48.558;18.150;2023-05-08T04:36:48;100227.06;;;9.24;70.53
54592;BME280;40488;48.558;18.150;2023-05-08T04:39:17;100227.00;;;9.21;70.43
54592;BME280;40488;48.558;18.150;2023-05-08T04:41:46;100230.47;;;9.23;70.73
54592;BME280;40488;48.558;18.150;2023-05-08T04:44:19;100227.06;;;9.24;70.63
54592;BME280;40488;48.558;18.150;2023-05-08T04:46:48;100234.94;;;9.42;70.69
54592;BME280;40488;48.558;18.150;2023-05-08T04:49:17;100230.13;;;9.65;69.91
54592;BME280;40488;48.558;18.150;2023-05-08T04:51:47;100236.13;;;9.72;69.44
54592;BME280;40488;48.558;18.150;2023-05-08T04:54:17;100236.13;;;9.72;69.21
54592;BME280;40488;48.558;18.150;2023-05-08T04:56:45;100239.63;;;9.80;69.04
54592;BME280;40488;48.558;18.150;2023-05-08T04:59:14;100245.81;;;10.00;68.32
54592;BME280;40488;48.558;18.150;2023-05-08T05:01:45;100237.47;;;10.13;67.88
54592;BME280;40488;48.558;18.150;2023-05-08T05:04:14;100245.19;;;10.19;67.65
54592;BME280;40488;48.558;18.150;2023-05-08T05:06:43;100250.41;;;10.31;67.74
54592;BME280;40488;48.558;18.150;2023-05-08T05:09:14;100253.09;;;10.45;66.32
54592;BME280;40488;48.558;18.150;2023-05-08T05:11:42;100251.44;;;10.48;66.11
54592;BME280;40488;48.558;18.150;2023-05-08T05:14:11;100259.13;;;10.53;66.17
54592;BME280;40488;48.558;18.150;2023-05-08T05:16:40;100260.03;;;10.58;65.53
54592;BME280;40488;48.558;18.150;2023-05-08T05:19:09;100248.13;;;10.60;65.35
54592;BME280;40488;48.558;18.150;2023-05-08T05:21:38;100257.56;;;10.71;65.13
54592;BME280;40488;48.558;18.150;2023-05-08T05:24:07;100258.50;;;10.81;64.31
54592;BME280;40488;48.558;18.150;2023-05-08T14:36:39;100100.34;;;20.63;33.30
54592;BME280;40488;48.558;18.150;2023-05-08T14:39:09;100094.13;;;20.67;33.31
54592;BME280;40488;48.558;18.150;2023-05-08T14:41:37;100093.00;;;20.74;33.43
54592;BME280;40488;48.558;18.150;2023-05-08T14:44:07;100095.75;;;20.94;33.89
54592;BME280;40488;48.558;18.150;2023-05-08T14:46:36;100093.94;;;20.96;33.89
54592;BME280;40488;48.558;18.150;2023-05-08T14:49:04;100096.06;;;20.85;33.41
54592;BME280;40488;48.558;18.150;2023-05-08T14:51:33;100091.63;;;20.64;33.68
54592;BME280;40488;48.558;18.150;2023-05-08T14:54:04;100097.25;;;20.77;33.98
54592;BME280;40488;48.558;18.150;2023-05-08T14:56:33;100098.63;;;20.87;33.96
54592;BME280;40488;48.558;18.150;2023-05-08T14:59:13;100093.53;;;20.84;33.86
54592;BME280;40488;48.558;18.150;2023-05-08T15:01:42;100093.16;;;20.94;34.01
54592;BME280;40488;48.558;18.150;2023-05-08T15:04:11;100103.38;;;20.99;33.78
54592;BME280;40488;48.558;18.150;2023-05-08T15:06:40;100095.63;;;20.97;33.74
54592;BME280;40488;48.558;18.150;2023-05-08T15:09:10;100091.78;;;20.84;33.87
54592;BME280;40488;48.558;18.150;2023-05-08T15:11:39;100096.56;;;20.71;33.93
54592;BME280;40488;48.558;18.150;2023-05-08T15:14:08;100093.44;;;20.62;34.41
54592;BME280;40488;48.558;18.150;2023-05-08T15:16:37;100093.78;;;20.53;34.67
54592;BME280;40488;48.558;18.150;2023-05-08T15:19:06;100093.78;;;20.53;34.62
54592;BME280;40488;48.558;18.150;2023-05-08T15:21:36;100098.97;;;20.53;34.62
54592;BME280;40488;48.558;18.150;2023-05-08T15:24:05;100096.00;;;20.63;35.40
54592;BME280;40488;48.558;18.150;2023-05-08T15:26:36;100097.78;;;20.61;35.32
54592;BME280;40488;48.558;18.150;2023-05-08T15:29:05;100091.50;;;20.44;35.40
54592;BME280;40488;48.558;18.150;2023-05-08T15:31:33;100096.47;;;20.50;35.01
54592;BME280;40488;48.558;18.150;2023-05-08T15:34:02;100098.25;;;20.48;35.40
54592;BME280;40488;48.558;18.150;2023-05-08T15:36:31;100103.34;;;20.51;36.08
54592;BME280;40488;48.558;18.150;2023-05-08T15:39:01;100097.47;;;20.46;36.44
54592;BME280;40488;48.558;18.150;2023-05-08T15:41:31;100101.19;;;20.39;36.42
54592;BME280;40488;48.558;18.150;2023-05-08T15:44:02;100101.25;;;20.10;36.64
54592;BME280;40488;48.558;18.150;2023-05-08T15:46:30;100096.97;;;20.08;36.73
54592;BME280;40488;48.558;18.150;2023-05-08T15:48:59;100093.97;;;20.21;36.69
54592;BME280;40488;48.558;18.150;2023-05-08T15:51:29;100095.78;;;20.19;36.53
54592;BME280;40488;48.558;18.150;2023-05-08T15:53:58;100095.75;;;20.20;36.83
54592;BME280;40488;48.558;18.150;2023-05-08T15:56:27;100096.03;;;20.11;36.81
54592;BME280;40488;48.558;18.150;2023-05-08T15:58:56;100089.00;;;19.88;37.39
54592;BME280;40488;48.558;18.150;2023-05-08T16:01:26;100096.97;;;19.82;37.73
54592;BME280;40488;48.558;18.150;2023-05-08T16:03:55;100087.00;;;19.96;38.08
54592;BME280;40488;48.558;18.150;2023-05-08T16:06:24;100090.59;;;19.92;37.73
54592;BME280;40488;48.558;18.150;2023-05-08T16:08:53;100087.81;;;19.72;37.31
54592;BME280;40488;48.558;18.150;2023-05-08T16:11:22;100088.97;;;19.62;37.70
54592;BME280;40488;48.558;18.150;2023-05-08T16:13:51;100083.81;;;19.62;37.74
54592;BME280;40488;48.558;18.150;2023-05-08T16:16:20;100084.75;;;19.58;37.98
54592;BME280;40488;48.558;18.150;2023-05-08T16:18:51;100102.38;;;19.47;38.01
54592;BME280;40488;48.558;18.150;2023-05-08T16:21:23;100102.72;;;19.35;38.55
54592;BME280;40488;48.558;18.150;2023-05-08T16:23:53;100103.50;;;19.08;38.81
54592;BME280;40488;48.558;18.150;2023-05-08T16:26:23;100107.56;;;18.87;38.05
54592;BME280;40488;48.558;18.150;2023-05-08T16:28:52;100110.59;;;18.70;37.24
54592;BME280;40488;48.558;18.150;2023-05-08T16:31:21;100109.22;;;18.57;37.32
54592;BME280;40488;48.558;18.150;2023-05-08T16:33:51;100118.63;;;18.61;37.64
54592;BME280;40488;48.558;18.150;2023-05-08T16:36:20;100123.94;;;18.55;37.47
54592;BME280;40488;48.558;18.150;2023-05-08T16:38:49;100119.34;;;18.31;37.17
54592;BME280;40488;48.558;18.150;2023-05-08T16:41:18;100123.22;;;18.15;37.30
54592;BME280;40488;48.558;18.150;2023-05-08T16:43:47;100129.06;;;18.22;37.28
54592;BME280;40488;48.558;18.150;2023-05-08T16:46:16;100135.25;;;18.16;37.11
54592;BME280;40488;48.558;18.150;2023-05-08T16:48:58;100137.22;;;18.05;36.81
54592;BME280;40488;48.558;18.150;2023-05-08T16:51:27;100149.41;;;18.00;37.05
54592;BME280;40488;48.558;18.150;2023-05-08T16:53:57;100162.75;;;17.82;37.59
54592;BME280;40488;48.558;18.150;2023-05-08T16:56:26;100168.41;;;17.59;38.19
54592;BME280;40488;48.558;18.150;2023-05-08T16:58:54;100170.28;;;17.50;38.15
54592;BME280;40488;48.558;18.150;2023-05-08T17:01:23;100176.72;;;17.30;38.70
54592;BME280;40488;48.558;18.150;2023-05-08T17:03:52;100181.97;;;17.27;38.85
54592;BME280;40488;48.558;18.150;2023-05-08T17:06:22;100189.03;;;17.16;38.84
54592;BME280;40488;48.558;18.150;2023-05-08T17:08:51;100189.09;;;17.13;39.10
54592;BME280;40488;48.558;18.150;2023-05-08T17:11:20;100185.09;;;16.99;38.83
54592;BME280;40488;48.558;18.150;2023-05-08T17:13:49;100200.03;;;16.80;39.38
54592;BME280;40488;48.558;18.150;2023-05-08T17:16:18;100202.69;;;16.77;39.47
54592;BME280;40488;48.558;18.150;2023-05-08T17:18:47;100207.16;;;16.66;39.69
54592;BME280;40488;48.558;18.150;2023-05-08T17:21:16;100209.00;;;16.59;39.53
54592;BME280;40488;48.558;18.150;2023-05-08T17:23:46;100202.38;;;16.42;40.03
54592;BME280;40488;48.558;18.150;2023-05-08T17:26:15;100216.22;;;16.35;40.25
54592;BME280;40488;48.558;18.150;2023-05-08T17:28:44;100218.19;;;16.18;39.98
54592;BME280;40488;48.558;18.150;2023-05-08T17:31:13;100209.94;;;15.97;40.11
54592;BME280;40488;48.558;18.150;2023-05-08T17:33:42;100221.91;;;15.98;40.63
54592;BME280;40488;48.558;18.150;2023-05-08T17:36:11;100224.50;;;16.00;40.60
54592;BME280;40488;48.558;18.150;2023-05-08T17:38:40;100230.63;;;15.88;41.07
54592;BME280;40488;48.558;18.150;2023-05-08T17:41:13;100234.25;;;15.75;41.31
54592;BME280;40488;48.558;18.150;2023-05-08T17:43:42;100244.63;;;15.68;41.32
54592;BME280;40488;48.558;18.150;2023-05-08T17:46:11;100250.69;;;15.62;41.36
54592;BME280;40488;48.558;18.150;2023-05-08T17:48:40;100253.41;;;15.50;42.02
54592;BME280;40488;48.558;18.150;2023-05-08T17:51:11;100267.25;;;15.40;42.55
54592;BME280;40488;48.558;18.150;2023-05-08T17:53:39;100265.63;;;15.30;42.78
54592;BME280;40488;48.558;18.150;2023-05-08T17:56:09;100274.19;;;15.29;42.82
54592;BME280;40488;48.558;18.150;2023-05-08T17:58:39;100278.50;;;15.28;42.77
54592;BME280;40488;48.558;18.150;2023-05-08T18:01:08;100274.31;;;15.20;42.70
54592;BME280;40488;48.558;18.150;2023-05-08T18:03:37;100281.22;;;15.12;42.81
54592;BME280;40488;48.558;18.150;2023-05-08T18:06:06;100288.19;;;15.04;42.92
54592;BME280;40488;48.558;18.150;2023-05-08T18:08:35;100296.72;;;15.06;43.57
54592;BME280;40488;48.558;18.150;2023-05-08T18:11:14;100298.50;;;14.98;43.10
54592;BME280;40488;48.558;18.150;2023-05-08T18:13:45;100305.41;;;14.93;43.57
54592;BME280;40488;48.558;18.150;2023-05-08T18:16:15;100305.47;;;14.87;43.55
54592;BME280;40488;48.558;18.150;2023-05-08T18:18:44;100309.81;;;14.77;44.11
54592;BME280;40488;48.558;18.150;2023-05-08T18:21:13;100302.16;;;14.72;44.08
54592;BME280;40488;48.558;18.150;2023-05-08T18:23:43;100311.59;;;14.69;44.40
54592;BME280;40488;48.558;18.150;2023-05-08T18:26:12;100315.13;;;14.56;44.55
54592;BME280;40488;48.558;18.150;2023-05-08T18:28:42;100322.84;;;14.51;44.52
54592;BME280;40488;48.558;18.150;2023-05-08T18:31:13;100314.34;;;14.40;44.90
54592;BME280;40488;48.558;18.150;2023-05-08T18:33:43;100321.25;;;14.29;45.21
54592;BME280;40488;48.558;18.150;2023-05-08T18:36:12;100319.56;;;14.22;45.10
54592;BME280;40488;48.558;18.150;2023-05-08T18:38:41;100322.13;;;14.19;45.67
54592;BME280;40488;48.558;18.150;2023-05-08T18:41:10;100320.50;;;14.07;45.88
54592;BME280;40488;48.558;18.150;2023-05-08T18:43:39;100329.94;;;13.98;45.99
54592;BME280;40488;48.558;18.150;2023-05-08T18:46:08;100328.31;;;13.79;46.45
54592;BME280;40488;48.558;18.150;2023-05-08T18:48:40;100336.00;;;13.73;46.61
54592;BME280;40488;48.558;18.150;2023-05-08T18:51:09;100328.34;;;13.64;46.61
54592;BME280;40488;48.558;18.150;2023-05-08T18:53:38;100333.47;;;13.67;46.88
54592;BME280;40488;48.558;18.150;2023-05-08T18:56:07;100341.19;;;13.67;46.85
54592;BME280;40488;48.558;18.150;2023-05-08T18:58:38;100342.06;;;13.63;46.78
54592;BME280;40488;48.558;18.150;2023-05-08T19:01:06;100352.31;;;13.60;46.92
54592;BME280;40488;48.558;18.150;2023-05-08T19:03:35;100358.28;;;13.51;46.90
54592;BME280;40488;48.558;18.150;2023-05-08T19:06:06;100359.16;;;13.44;47.29
54592;BME280;40488;48.558;18.150;2023-05-08T19:08:35;100371.16;;;13.40;47.29
54592;BME280;40488;48.558;18.150;2023-05-08T19:11:03;100375.41;;;13.43;47.13
54592;BME280;40488;48.558;18.150;2023-05-08T19:13:33;100377.97;;;13.41;47.17
54592;BME280;40488;48.558;18.150;2023-05-08T19:16:02;100375.44;;;13.34;47.00
54592;BME280;40488;48.558;18.150;2023-05-08T19:18:31;100388.25;;;13.26;47.04
54592;BME280;40488;48.558;18.150;2023-05-08T19:21:00;100369.44;;;13.15;47.33
54592;BME280;40488;48.558;18.150;2023-05-08T19:23:30;100378.84;;;13.18;47.34
54592;BME280;40488;48.558;18.150;2023-05-08T19:25:59;100380.56;;;13.10;47.59
54592;BME280;40488;48.558;18.150;2023-05-08T19:28:28;100388.22;;;12.99;47.62
54592;BME280;40488;48.558;18.150;2023-05-08T19:30:57;100385.66;;;12.93;47.95
54592;BME280;40488;48.558;18.150;2023-05-08T19:33:26;100389.06;;;12.88;48.04
54592;BME280;40488;48.558;18.150;2023-05-08T19:35:55;100386.50;;;12.83;48.27
54592;BME280;40488;48.558;18.150;2023-05-08T19:38:24;100392.44;;;12.87;47.68
54592;BME280;40488;48.558;18.150;2023-05-08T19:40:55;100386.47;;;12.86;48.42
54592;BME280;40488;48.558;18.150;2023-05-08T19:43:25;100392.44;;;12.79;48.68
54592;BME280;40488;48.558;18.150;2023-05-08T19:45:54;100395.00;;;12.73;48.64
54592;BME280;40488;48.558;18.150;2023-05-08T19:48:23;100393.28;;;12.72;48.96
54592;BME280;40488;48.558;18.150;2023-05-08T19:50:53;100383.91;;;12.78;49.02
54592;BME280;40488;48.558;18.150;2023-05-08T19:53:22;100389.91;;;12.76;48.75
54592;BME280;40488;48.558;18.150;2023-05-08T19:55:51;100393.28;;;12.75;49.26
54592;BME280;40488;48.558;18.150;2023-05-08T19:58:21;100403.56;;;12.78;49.40
54592;BME280;40488;48.558;18.150;2023-05-08T20:00:51;100394.16;;;12.77;49.99
54592;BME280;40488;48.558;18.150;2023-05-08T20:03:19;100405.25;;;12.76;50.48
54592;BME280;40488;48.558;18.150;2023-05-08T20:05:49;100405.22;;;12.70;50.82
54592;BME280;40488;48.558;18.150;2023-05-08T20:08:18;100390.72;;;12.63;51.21
54592;BME280;40488;48.558;18.150;2023-05-08T20:10:47;100405.22;;;12.64;50.88
54592;BME280;40488;48.558;18.150;2023-05-08T20:13:20;100397.53;;;12.56;50.88
54592;BME280;40488;48.558;18.150;2023-05-08T20:15:49;100400.06;;;12.52;51.04
54592;BME280;40488;48.558;18.150;2023-05-08T20:18:20;100397.47;;;12.46;50.96
54592;BME280;40488;48.558;18.150;2023-05-08T20:20:48;100403.47;;;12.48;51.33
54592;BME280;40488;48.558;18.150;2023-05-08T20:23:17;100400.03;;;12.40;51.14
54592;BME280;40488;48.558;18.150;2023-05-08T20:25:46;100397.44;;;12.38;51.00
54592;BME280;40488;48.558;18.150;2023-05-08T20:28:15;100406.88;;;12.44;51.06
54592;BME280;40488;48.558;18.150;2023-05-08T20:30:50;100403.44;;;12.39;51.48
54592;BME280;40488;48.558;18.150;2023-05-08T20:33:20;100405.13;;;12.31;51.46
54592;BME280;40488;48.558;18.150;2023-05-08T20:35:49;100405.97;;;12.24;51.51
54592;BME280;40488;48.558;18.150;2023-05-08T20:38:17;100406.75;;;12.17;51.63
54592;BME280;40488;48.558;18.150;2023-05-08T20:40:46;100413.56;;;12.08;51.63
54592;BME280;40488;48.558;18.150;2023-05-08T20:43:15;100417.81;;;12.08;51.84
54592;BME280;40488;48.558;18.150;2023-05-08T20:45:45;100416.97;;;12.10;51.97
54592;BME280;40488;48.558;18.150;2023-05-08T20:48:17;100416.97;;;12.10;52.09
54592;BME280;40488;48.558;18.150;2023-05-08T20:50:47;100411.81;;;12.07;51.92
54592;BME280;40488;48.558;18.150;2023-05-08T20:53:16;100408.41;;;12.05;51.99
54592;BME280;40488;48.558;18.150;2023-05-08T20:55:45;100420.31;;;12.00;52.08
54592;BME280;40488;48.558;18.150;2023-05-08T20:58:13;100419.47;;;11.97;52.12
54592;BME280;40488;48.558;18.150;2023-05-08T21:00:42;100422.84;;;11.91;52.09
54592;BME280;40488;48.558;18.150;2023-05-08T21:03:11;100427.97;;;11.90;52.06
54592;BME280;40488;48.558;18.150;2023-05-08T21:05:41;100430.50;;;11.88;52.34
54592;BME280;40488;48.558;18.150;2023-05-08T21:08:10;100430.50;;;11.91;52.51
54592;BME280;40488;48.558;18.150;2023-05-08T21:10:39;100433.94;;;11.93;53.04
54592;BME280;40488;48.558;18.150;2023-05-08T21:13:08;100435.59;;;11.88;52.81
54592;BME280;40488;48.558;18.150;2023-05-08T21:15:37;100427.88;;;11.79;52.76
54592;BME280;40488;48.558;18.150;2023-05-08T21:18:06;100427.88;;;11.78;53.07
54592;BME280;40488;48.558;18.150;2023-05-08T21:20:35;100428.66;;;11.69;54.02
54592;BME280;40488;48.558;18.150;2023-05-08T21:23:05;100435.44;;;11.67;54.01
54592;BME280;40488;48.558;18.150;2023-05-08T21:25:34;100426.00;;;11.62;54.14
54592;BME280;40488;48.558;18.150;2023-05-08T21:28:03;100431.94;;;11.53;54.87
54592;BME280;40488;48.558;18.150;2023-05-08T21:30:32;100429.31;;;11.47;55.10
54592;BME280;40488;48.558;18.150;2023-05-08T21:33:01;100416.44;;;11.35;55.26
54592;BME280;40488;48.558;18.150;2023-05-08T21:35:30;100425.84;;;11.40;55.89
54592;BME280;40488;48.558;18.150;2023-05-08T21:37:59;100435.97;;;11.28;56.06
54592;BME280;40488;48.558;18.150;2023-05-08T21:40:29;100423.88;;;11.08;56.39
54592;BME280;40488;48.558;18.150;2023-05-08T21:42:58;100436.59;;;11.02;56.66
54592;BME280;40488;48.558;18.150;2023-05-08T21:45:28;100430.56;;;10.95;57.27
54592;BME280;40488;48.558;18.150;2023-05-08T21:47:57;100428.72;;;10.81;57.59
54592;BME280;40488;48.558;18.150;2023-05-08T21:50:27;100434.78;;;10.89;57.78
54592;BME280;40488;48.558;18.150;2023-05-08T21:52:55;100431.19;;;10.71;58.71
54592;BME280;40488;48.558;18.150;2023-05-08T21:55:24;100435.19;;;10.51;59.27
54592;BME280;40488;48.558;18.150;2023-05-08T21:57:55;100429.13;;;10.40;60.04
54592;BME280;40488;48.558;18.150;2023-05-08T22:00:23;100427.34;;;10.33;60.50
54592;BME280;40488;48.558;18.150;2023-05-08T22:02:53;100434.88;;;10.24;60.99
54592;BME280;40488;48.558;18.150;2023-05-08T22:05:22;100441.56;;;10.15;61.54
54592;BME280;40488;48.558;18.150;2023-05-08T22:07:51;100439.03;;;10.16;61.63
54592;BME280;40488;48.558;18.150;2023-05-08T22:10:20;100452.50;;;10.09;61.91
54592;BME280;40488;48.558;18.150;2023-05-08T22:12:51;100447.09;;;9.88;61.96
54592;BME280;40488;48.558;18.150;2023-05-08T22:15:21;100450.34;;;9.76;63.21